createdAt,value
2018-07-12T00:00:09.735Z,21.00
2018-07-12T00:02:38.249Z,20.92
2018-07-12T00:05:07.280Z,20.81
2018-07-12T00:07:35.843Z,20.86
2018-07-12T00:10:04.370Z,20.81
2018-07-12T00:12:32.955Z,20.79
2018-07-12T00:15:01.428Z,20.73
2018-07-12T00:17:29.916Z,20.74
2018-07-12T00:19:58.281Z,20.72
2018-07-12T00:22:26.832Z,20.72
2018-07-12T00:24:56.040Z,20.69
2018-07-12T00:27:24.657Z,20.62
2018-07-12T00:29:53.235Z,20.63
2018-07-12T00:32:21.819Z,20.58
2018-07-12T00:34:50.405Z,20.49
2018-07-12T00:37:18.837Z,20.45
2018-07-12T00:39:47.188Z,20.35
2018-07-12T00:42:15.947Z,20.31
2018-07-12T00:44:44.403Z,20.31
2018-07-12T00:47:12.907Z,20.28
2018-07-12T00:49:41.737Z,20.18
2018-07-12T00:52:10.417Z,20.09
2018-07-12T00:54:39.064Z,19.92
2018-07-12T00:57:07.751Z,19.87
2018-07-12T00:59:36.568Z,19.83
2018-07-12T01:02:05.122Z,19.80
2018-07-12T01:04:34.274Z,19.85
2018-07-12T01:07:03.104Z,19.96
2018-07-12T01:09:31.476Z,19.85
2018-07-12T01:12:00.272Z,19.82
2018-07-12T01:14:29.082Z,19.84
2018-07-12T01:16:58.226Z,19.83
2018-07-12T01:19:26.944Z,19.78
2018-07-12T01:21:56.343Z,19.82
2018-07-12T01:24:24.822Z,19.73
2018-07-12T01:26:53.505Z,19.70
2018-07-12T01:29:22.296Z,19.77
2018-07-12T01:31:50.797Z,19.79
2018-07-12T01:34:19.253Z,19.74
2018-07-12T01:36:48.140Z,19.69
2018-07-12T01:39:16.729Z,19.68
2018-07-12T01:41:47.011Z,19.79
2018-07-12T01:44:15.347Z,19.70
2018-07-12T01:46:44.326Z,19.69
2018-07-12T01:49:12.860Z,19.64
2018-07-12T01:51:41.482Z,19.60
2018-07-12T01:54:10.070Z,19.57
2018-07-12T01:56:38.758Z,19.51
2018-07-12T01:59:07.232Z,19.44
2018-07-12T02:01:35.921Z,19.42
2018-07-12T02:04:04.599Z,19.57
2018-07-12T02:06:33.183Z,19.54
2018-07-12T02:09:01.981Z,19.53
2018-07-12T02:11:30.758Z,19.46
2018-07-12T02:13:59.239Z,19.49
2018-07-12T02:16:27.710Z,19.40
2018-07-12T02:18:56.402Z,19.39
2018-07-12T02:21:25.089Z,19.32
2018-07-12T02:23:53.774Z,19.24
2018-07-12T02:26:22.260Z,19.25
2018-07-12T02:28:51.247Z,19.22
2018-07-12T02:31:20.048Z,19.22
2018-07-12T02:33:48.617Z,19.16
2018-07-12T02:36:17.727Z,19.17
2018-07-12T02:38:46.193Z,19.19
2018-07-12T02:41:15.480Z,19.21
2018-07-12T02:43:44.499Z,19.19
2018-07-12T02:46:13.286Z,19.26
2018-07-12T02:48:41.957Z,19.26
2018-07-12T02:51:10.441Z,19.13
2018-07-12T02:53:39.020Z,19.25
2018-07-12T02:56:07.599Z,19.20
2018-07-12T02:58:36.392Z,19.16
2018-07-12T03:01:05.769Z,19.12
2018-07-12T03:03:35.064Z,19.13
2018-07-12T03:06:03.777Z,19.12
2018-07-12T03:08:32.149Z,19.13
2018-07-12T03:11:00.938Z,19.15
2018-07-12T03:13:29.549Z,18.99
2018-07-12T03:15:58.102Z,19.15
2018-07-12T03:18:26.678Z,19.13
2018-07-12T03:20:55.277Z,19.10
2018-07-12T03:23:24.172Z,19.17
2018-07-12T03:25:52.668Z,19.23
2018-07-12T03:28:21.220Z,19.33
2018-07-12T03:30:49.801Z,19.41
2018-07-12T03:33:18.282Z,19.65
2018-07-12T03:35:47.182Z,19.78
2018-07-12T03:38:16.159Z,19.95
2018-07-12T03:40:44.750Z,20.21
2018-07-12T03:43:13.230Z,20.48
2018-07-12T03:45:41.716Z,20.76
2018-07-12T03:48:10.700Z,21.08
2018-07-12T03:50:40.112Z,21.16
2018-07-12T03:53:08.789Z,21.48
2018-07-12T03:55:37.409Z,21.54
2018-07-12T03:58:05.875Z,21.81
2018-07-12T04:00:34.534Z,22.21
2018-07-12T04:03:03.120Z,22.41
2018-07-12T04:05:31.816Z,22.43
2018-07-12T04:08:01.000Z,22.57
2018-07-12T04:10:29.589Z,23.05
2018-07-12T04:12:58.364Z,23.10
2018-07-12T04:15:28.077Z,23.85
2018-07-12T04:17:56.969Z,24.34
2018-07-12T04:20:26.120Z,24.31
2018-07-12T04:22:54.846Z,24.41
2018-07-12T04:25:23.431Z,24.82
2018-07-12T04:27:52.028Z,25.38
2018-07-12T04:30:20.702Z,25.28
2018-07-12T04:32:49.448Z,25.29
2018-07-12T04:35:18.150Z,25.32
2018-07-12T04:37:46.900Z,25.57
2018-07-12T04:40:15.492Z,26.02
2018-07-12T04:42:44.144Z,25.95
2018-07-12T04:45:12.811Z,26.22
2018-07-12T04:47:41.394Z,26.29
2018-07-12T04:50:10.664Z,26.77
2018-07-12T04:52:39.481Z,27.07
2018-07-12T04:55:08.164Z,27.01
2018-07-12T04:57:36.752Z,27.27
2018-07-12T05:00:05.332Z,26.59
2018-07-12T05:02:34.020Z,27.80
2018-07-12T05:05:02.703Z,27.89
2018-07-12T05:07:31.341Z,28.14
2018-07-12T05:09:59.968Z,28.01
2018-07-12T05:12:28.754Z,28.74
2018-07-12T05:14:57.478Z,28.32
2018-07-12T05:17:26.181Z,28.65
2018-07-12T05:19:54.775Z,28.39
2018-07-12T05:22:23.508Z,29.33
2018-07-12T05:24:52.655Z,29.67
2018-07-12T05:27:21.073Z,29.63
2018-07-12T05:29:49.549Z,29.40
2018-07-12T05:32:18.445Z,29.32
2018-07-12T05:34:47.616Z,30.23
2018-07-12T05:37:17.896Z,30.58
2018-07-12T05:39:48.138Z,29.73
2018-07-12T05:42:18.520Z,30.02
2018-07-12T05:44:48.793Z,30.18
2018-07-12T05:47:19.103Z,30.41
2018-07-12T05:49:49.823Z,30.76
2018-07-12T05:52:20.510Z,30.52
2018-07-12T05:54:51.216Z,30.76
2018-07-12T05:57:23.474Z,31.03
2018-07-12T05:59:53.945Z,30.87
2018-07-12T06:02:25.196Z,31.64
2018-07-12T06:04:55.689Z,31.32
2018-07-12T06:07:31.557Z,31.94
2018-07-12T06:10:01.963Z,32.17
2018-07-12T06:12:32.565Z,32.39
2018-07-12T06:15:03.029Z,32.74
2018-07-12T06:17:34.265Z,33.35
2018-07-12T06:20:05.266Z,32.39
2018-07-12T06:22:35.719Z,32.53
2018-07-12T06:25:06.931Z,32.66
2018-07-12T06:27:37.717Z,32.08
2018-07-12T06:30:08.421Z,32.36
2018-07-12T06:32:39.035Z,33.17
2018-07-12T06:35:09.387Z,32.84
2018-07-12T06:37:40.301Z,32.75
2018-07-12T06:40:11.007Z,33.16
2018-07-12T06:42:42.284Z,32.70
2018-07-12T06:45:12.811Z,33.95
2018-07-12T06:47:43.456Z,33.84
2018-07-12T06:50:14.055Z,33.62
2018-07-12T06:52:45.408Z,33.84
2018-07-12T06:55:16.208Z,34.30
2018-07-12T06:57:46.753Z,33.83
2018-07-12T07:00:17.170Z,34.01
2018-07-12T07:02:47.611Z,34.06
2018-07-12T07:05:18.073Z,34.79
2018-07-12T07:07:48.533Z,34.98
2018-07-12T07:10:19.023Z,34.86
2018-07-12T07:12:49.685Z,35.22
2018-07-12T07:15:20.144Z,34.21
2018-07-12T07:17:50.612Z,34.52
2018-07-12T07:20:21.112Z,34.30
2018-07-12T07:22:51.602Z,34.84
2018-07-12T07:25:22.960Z,34.94
2018-07-12T07:27:53.359Z,35.03
2018-07-12T07:30:24.194Z,36.15
2018-07-12T07:32:54.725Z,35.02
2018-07-12T07:35:25.277Z,35.52
2018-07-12T07:37:55.663Z,35.28
2018-07-12T07:40:26.072Z,36.26
2018-07-12T07:42:56.761Z,36.13
2018-07-12T07:45:27.081Z,36.45
2018-07-12T07:47:58.263Z,36.10
2018-07-12T07:50:28.936Z,36.13
2018-07-12T07:53:00.782Z,36.85
2018-07-12T07:55:31.289Z,36.53
2018-07-12T07:58:01.848Z,36.04
2018-07-12T08:00:32.543Z,36.75
2018-07-12T08:03:03.312Z,36.75
2018-07-12T08:05:33.972Z,36.22
2018-07-12T08:08:04.600Z,36.84
2018-07-12T08:10:35.117Z,37.89
2018-07-12T08:13:05.744Z,36.70
2018-07-12T08:15:36.503Z,35.46
2018-07-12T08:18:07.410Z,35.92
2018-07-12T08:20:37.922Z,37.07
2018-07-12T08:23:08.461Z,37.90
2018-07-12T08:25:38.960Z,37.58
2018-07-12T08:28:20.399Z,37.06
2018-07-12T08:30:51.952Z,37.69
2018-07-12T08:33:22.647Z,37.65
2018-07-12T08:35:53.347Z,36.28
2018-07-12T08:38:24.135Z,36.94
2018-07-12T08:40:55.131Z,37.18
2018-07-12T08:43:26.076Z,37.32
2018-07-12T08:45:57.145Z,36.90
2018-07-12T08:48:28.282Z,38.21
2018-07-12T08:50:59.341Z,38.54
2018-07-12T08:53:30.426Z,38.27
2018-07-12T08:56:01.325Z,38.72
2018-07-12T08:58:32.243Z,38.30
2018-07-12T09:01:04.261Z,37.99
2018-07-12T09:03:35.013Z,38.94
2018-07-12T09:06:05.914Z,38.37
2018-07-12T09:08:37.013Z,37.87
2018-07-12T09:11:08.232Z,37.84
2018-07-12T09:13:39.110Z,39.58
2018-07-12T09:16:10.726Z,39.48
2018-07-12T09:18:41.945Z,40.47
2018-07-12T09:21:14.923Z,40.09
2018-07-12T09:23:46.217Z,40.58
2018-07-12T09:26:18.174Z,40.55
2018-07-12T09:28:49.388Z,40.27
2018-07-12T09:31:20.558Z,39.85
2018-07-12T09:33:52.595Z,40.40
2018-07-12T09:36:26.010Z,40.17
2018-07-12T09:38:57.026Z,39.22
2018-07-12T09:41:28.111Z,39.18
2018-07-12T09:44:10.316Z,38.52
2018-07-12T09:46:42.244Z,39.12
2018-07-12T09:49:13.287Z,38.75
2018-07-12T09:51:45.421Z,38.96
2018-07-12T09:54:16.294Z,39.40
2018-07-12T09:56:57.829Z,37.91
2018-07-12T09:59:29.223Z,38.92
2018-07-12T10:02:04.929Z,39.30
2018-07-12T10:04:35.744Z,38.93
2018-07-12T10:07:11.976Z,38.66
2018-07-12T10:09:47.635Z,38.93
2018-07-12T10:12:23.369Z,38.92
2018-07-12T10:14:57.845Z,40.44
2018-07-12T10:17:33.532Z,40.95
2018-07-12T10:20:05.495Z,40.51
2018-07-12T10:22:35.962Z,40.12
2018-07-12T10:25:06.970Z,40.56
2018-07-12T10:27:37.492Z,40.16
2018-07-12T10:30:08.194Z,40.70
2018-07-12T10:32:38.913Z,39.45
2018-07-12T10:35:09.815Z,40.82
2018-07-12T10:37:40.524Z,39.06
2018-07-12T10:40:11.322Z,39.78
2018-07-12T10:42:41.996Z,39.69
2018-07-12T10:45:12.707Z,39.78
2018-07-12T10:47:43.421Z,40.07
2018-07-12T10:50:14.192Z,40.40
2018-07-12T10:52:44.985Z,41.19
2018-07-12T10:55:15.639Z,40.18
2018-07-12T10:57:46.447Z,40.61
2018-07-12T11:00:17.439Z,39.64
2018-07-12T11:02:48.185Z,38.46
2018-07-12T11:05:19.126Z,38.86
2018-07-12T11:07:50.163Z,38.45
2018-07-12T11:10:20.873Z,38.07
2018-07-12T11:13:02.300Z,39.38
2018-07-12T11:15:32.993Z,39.04
2018-07-12T11:18:03.664Z,38.09
2018-07-12T11:20:34.049Z,39.30
2018-07-12T11:23:04.767Z,38.48
2018-07-12T11:25:35.448Z,38.58
2018-07-12T11:28:06.419Z,39.00
2018-07-12T11:30:37.209Z,38.14
2018-07-12T11:33:49.601Z,36.47
2018-07-12T11:36:20.395Z,35.66
2018-07-12T11:38:51.092Z,35.07
2018-07-12T11:41:22.892Z,34.27
2018-07-12T11:43:53.557Z,34.12
2018-07-12T11:46:25.347Z,34.20
2018-07-12T11:48:56.047Z,34.20
2018-07-12T11:51:26.742Z,34.01
2018-07-12T11:53:57.543Z,34.23
2018-07-12T11:56:28.988Z,34.22
2018-07-12T11:58:59.868Z,34.18
2018-07-12T12:01:31.373Z,34.12
2018-07-12T12:04:03.004Z,34.07
2018-07-12T12:06:33.633Z,33.84
2018-07-12T12:09:05.491Z,33.09
2018-07-12T12:11:37.503Z,33.53
2018-07-12T12:14:08.334Z,33.78
2018-07-12T12:16:38.986Z,33.85
2018-07-12T12:19:09.808Z,33.77
2018-07-12T12:21:40.847Z,33.52
2018-07-12T12:24:11.666Z,33.71
2018-07-12T12:26:42.892Z,33.83
2018-07-12T12:29:13.922Z,34.05
2018-07-12T12:31:45.970Z,34.29
2018-07-12T12:34:16.813Z,34.05
2018-07-12T12:36:47.483Z,33.57
2018-07-12T12:39:18.111Z,33.61
2018-07-12T12:41:49.335Z,33.71
2018-07-12T12:44:20.109Z,33.97
2018-07-12T12:46:50.618Z,33.52
2018-07-12T12:49:21.468Z,33.67
2018-07-12T12:51:52.109Z,34.03
2018-07-12T12:54:22.637Z,33.85
2018-07-12T12:56:53.353Z,33.77
2018-07-12T12:59:24.094Z,33.72
2018-07-12T13:01:54.831Z,33.81
2018-07-12T13:04:25.724Z,33.57
2018-07-12T13:06:56.421Z,33.51
2018-07-12T13:09:27.069Z,33.48
2018-07-12T13:11:57.997Z,33.46
2018-07-12T13:14:28.722Z,33.36
2018-07-12T13:16:59.623Z,33.01
2018-07-12T13:19:30.373Z,33.36
2018-07-12T13:22:01.327Z,33.75
2018-07-12T13:24:32.062Z,33.75
2018-07-12T13:27:02.711Z,33.52
2018-07-12T13:29:33.266Z,33.51
2018-07-12T13:32:03.996Z,33.46
2018-07-12T13:34:34.788Z,33.43
2018-07-12T13:37:05.681Z,33.49
2018-07-12T13:39:36.668Z,33.42
2018-07-12T13:42:07.305Z,33.47
2018-07-12T13:44:37.980Z,33.36
2018-07-12T13:47:08.813Z,32.99
2018-07-12T13:49:39.640Z,33.11
2018-07-12T13:52:10.335Z,33.02
2018-07-12T13:54:40.765Z,33.50
2018-07-12T13:57:11.446Z,33.61
2018-07-12T13:59:42.241Z,33.63
2018-07-12T14:02:12.908Z,33.68
2018-07-12T14:04:43.591Z,33.62
2018-07-12T14:07:14.469Z,33.54
2018-07-12T14:09:45.065Z,33.42
2018-07-12T14:12:15.531Z,33.47
2018-07-12T14:14:46.263Z,33.41
2018-07-12T14:17:16.854Z,33.36
2018-07-12T14:19:47.673Z,33.15
2018-07-12T14:22:18.396Z,32.85
2018-07-12T14:24:49.082Z,32.96
2018-07-12T14:27:20.120Z,33.06
2018-07-12T14:29:50.785Z,32.90
2018-07-12T14:32:22.964Z,32.80
2018-07-12T14:34:54.522Z,32.60
2018-07-12T14:37:25.092Z,32.53
2018-07-12T14:39:55.770Z,32.50
2018-07-12T14:42:26.432Z,32.48
2018-07-12T14:44:57.097Z,32.51
2018-07-12T14:47:27.610Z,32.43
2018-07-12T14:49:58.218Z,32.23
2018-07-12T14:52:28.955Z,32.34
2018-07-12T14:54:59.721Z,32.37
2018-07-12T14:57:30.268Z,32.46
2018-07-12T15:00:00.844Z,32.56
2018-07-12T15:02:31.681Z,32.54
2018-07-12T15:05:02.494Z,32.56
2018-07-12T15:07:33.285Z,32.55
2018-07-12T15:10:03.871Z,32.65
2018-07-12T15:12:34.526Z,32.79
2018-07-12T15:15:05.317Z,32.90
2018-07-12T15:17:36.103Z,33.04
2018-07-12T15:20:06.746Z,32.97
2018-07-12T15:22:37.500Z,32.88
2018-07-12T15:25:08.437Z,32.84
2018-07-12T15:27:39.004Z,32.70
2018-07-12T15:30:09.675Z,32.67
2018-07-12T15:32:40.311Z,32.63
2018-07-12T15:35:11.328Z,32.60
2018-07-12T15:37:42.113Z,32.62
2018-07-12T15:40:13.153Z,32.56
2018-07-12T15:42:45.099Z,32.36
2018-07-12T15:45:15.615Z,32.49
2018-07-12T15:47:46.322Z,32.41
2018-07-12T15:50:21.336Z,32.30
2018-07-12T15:52:52.075Z,32.36
2018-07-12T15:55:22.872Z,32.51
2018-07-12T15:57:53.638Z,32.58
2018-07-12T16:00:24.841Z,32.63
2018-07-12T16:02:55.544Z,32.50
2018-07-12T16:05:26.389Z,32.50
2018-07-12T16:07:57.093Z,32.54
2018-07-12T16:10:27.690Z,32.63
2018-07-12T16:12:58.263Z,32.69
2018-07-12T16:15:29.030Z,32.75
2018-07-12T16:17:59.699Z,32.80
2018-07-12T16:20:30.400Z,33.01
2018-07-12T16:23:00.884Z,33.06
2018-07-12T16:25:31.534Z,33.16
2018-07-12T16:28:02.130Z,33.42
2018-07-12T16:30:33.106Z,33.42
2018-07-12T16:33:03.849Z,33.37
2018-07-12T16:35:34.445Z,33.26
2018-07-12T16:38:05.217Z,33.20
2018-07-12T16:40:35.707Z,33.11
2018-07-12T16:43:06.461Z,33.08
2018-07-12T16:45:37.490Z,33.06
2018-07-12T16:48:08.145Z,32.96
2018-07-12T16:50:38.628Z,32.93
2018-07-12T16:53:09.394Z,32.96
2018-07-12T16:55:40.921Z,32.75
2018-07-12T16:58:12.009Z,32.39
2018-07-12T17:00:42.611Z,32.19
2018-07-12T17:03:13.813Z,32.12
2018-07-12T17:05:44.594Z,31.99
2018-07-12T17:08:15.075Z,31.81
2018-07-12T17:10:45.770Z,31.57
2018-07-12T17:13:16.177Z,31.57
2018-07-12T17:15:46.680Z,31.52
2018-07-12T17:18:17.599Z,31.36
2018-07-12T17:20:48.297Z,31.08
2018-07-12T17:23:18.821Z,30.97
2018-07-12T17:25:49.605Z,30.75
2018-07-12T17:28:20.488Z,30.63
2018-07-12T17:30:50.995Z,30.54
2018-07-12T17:33:21.823Z,30.38
2018-07-12T17:35:52.335Z,30.20
2018-07-12T17:38:23.008Z,30.19
2018-07-12T17:40:53.704Z,30.17
2018-07-12T17:43:24.496Z,30.04
2018-07-12T17:45:58.704Z,29.92
2018-07-12T17:48:29.391Z,29.81
2018-07-12T17:51:00.073Z,29.70
2018-07-12T17:53:30.648Z,29.58
2018-07-12T17:56:01.295Z,29.34
2018-07-12T17:58:31.955Z,29.09
2018-07-12T18:01:03.384Z,28.79
2018-07-12T18:03:34.223Z,28.62
2018-07-12T18:06:05.012Z,28.53
2018-07-12T18:08:35.720Z,28.39
2018-07-12T18:11:07.249Z,28.35
2018-07-12T18:13:37.971Z,28.27
2018-07-12T18:16:08.700Z,28.15
2018-07-12T18:18:39.643Z,28.11
2018-07-12T18:21:10.160Z,28.03
2018-07-12T18:23:40.795Z,27.86
2018-07-12T18:26:11.684Z,27.76
2018-07-12T18:28:42.434Z,27.81
2018-07-12T18:31:13.209Z,27.84
2018-07-12T18:33:43.771Z,27.90
2018-07-12T18:36:14.355Z,27.89
2018-07-12T18:38:45.059Z,27.86
2018-07-12T18:41:15.617Z,27.92
2018-07-12T18:43:46.107Z,27.96
2018-07-12T18:46:16.916Z,28.01
2018-07-12T18:48:47.696Z,28.06
2018-07-12T18:51:18.447Z,28.03
2018-07-12T18:53:49.117Z,27.99
2018-07-12T18:56:19.800Z,27.94
2018-07-12T18:58:50.428Z,27.95
2018-07-12T19:01:21.040Z,27.88
2018-07-12T19:03:52.057Z,27.93
2018-07-12T19:06:22.818Z,27.90
2018-07-12T19:08:53.549Z,27.71
2018-07-12T19:11:24.399Z,27.58
2018-07-12T19:13:55.010Z,27.45
2018-07-12T19:16:25.654Z,27.30
2018-07-12T19:18:56.326Z,27.23
2018-07-12T19:21:27.055Z,27.11
2018-07-12T19:23:57.504Z,27.03
2018-07-12T19:26:28.250Z,26.96
2018-07-12T19:28:58.810Z,26.87
2018-07-12T19:31:29.467Z,26.88
2018-07-12T19:34:00.112Z,26.75
2018-07-12T19:36:30.846Z,26.84
2018-07-12T19:39:01.296Z,26.78
2018-07-12T19:41:32.078Z,26.69
2018-07-12T19:44:02.790Z,26.68
2018-07-12T19:46:33.533Z,26.66
2018-07-12T19:49:04.752Z,26.59
2018-07-12T19:51:35.438Z,26.51
2018-07-12T19:54:06.294Z,26.51
2018-07-12T19:56:37.191Z,26.46
2018-07-12T19:59:07.809Z,26.44
2018-07-12T20:01:39.051Z,26.33
2018-07-12T20:04:09.615Z,26.29
2018-07-12T20:06:40.184Z,26.32
2018-07-12T20:09:11.582Z,26.27
2018-07-12T20:11:42.633Z,26.20
2018-07-12T20:14:13.353Z,26.17
2018-07-12T20:16:44.063Z,26.14
2018-07-12T20:19:14.659Z,26.16
2018-07-12T20:21:45.214Z,26.15
2018-07-12T20:24:15.939Z,26.23
2018-07-12T20:26:46.630Z,26.16
2018-07-12T20:29:17.378Z,26.07
2018-07-12T20:31:48.296Z,26.02
2018-07-12T20:34:18.808Z,25.97
2018-07-12T20:36:49.543Z,25.96
2018-07-12T20:39:20.573Z,25.95
2018-07-12T20:41:51.696Z,25.80
2018-07-12T20:44:22.303Z,25.71
2018-07-12T20:46:53.071Z,25.74
2018-07-12T20:49:23.704Z,25.69
2018-07-12T20:51:54.303Z,25.70
2018-07-12T20:54:25.054Z,25.62
2018-07-12T20:56:55.895Z,25.54
2018-07-12T20:59:26.752Z,25.42
2018-07-12T21:01:57.291Z,25.32
2018-07-12T21:04:32.592Z,25.27
2018-07-12T21:07:03.885Z,25.18
2018-07-12T21:09:34.619Z,25.11
2018-07-12T21:12:05.231Z,25.11
2018-07-12T21:14:37.202Z,25.09
2018-07-12T21:17:08.144Z,25.07
2018-07-12T21:19:38.895Z,25.00
2018-07-12T21:22:09.427Z,24.92
2018-07-12T21:24:40.030Z,24.92
2018-07-12T21:27:10.738Z,24.90
2018-07-12T21:29:41.409Z,24.92
2018-07-12T21:32:11.990Z,24.84
2018-07-12T21:34:42.762Z,24.81
2018-07-12T21:37:13.510Z,24.73
2018-07-12T21:39:44.191Z,24.91
2018-07-12T21:42:15.150Z,24.87
2018-07-12T21:44:45.672Z,24.86
2018-07-12T21:47:16.380Z,24.77
2018-07-12T21:49:47.047Z,24.77
2018-07-12T21:52:17.811Z,24.67
2018-07-12T21:54:49.119Z,24.56
2018-07-12T21:57:19.790Z,24.48
2018-07-12T21:59:50.539Z,24.42
2018-07-12T22:02:21.064Z,24.32
2018-07-12T22:04:51.712Z,24.37
2018-07-12T22:08:26.622Z,24.44
2018-07-12T22:10:58.477Z,24.34
2018-07-12T22:13:30.343Z,24.28
2018-07-12T22:16:00.914Z,24.38
2018-07-12T22:18:31.837Z,24.32
2018-07-12T22:21:05.757Z,24.30
2018-07-12T22:23:36.404Z,24.29
2018-07-12T22:26:07.397Z,24.28
2018-07-12T22:28:38.089Z,24.29
2018-07-12T22:31:09.021Z,24.27
2018-07-12T22:33:40.504Z,24.20
2018-07-12T22:36:11.223Z,24.26
2018-07-12T22:38:41.905Z,24.18
2018-07-12T22:41:12.580Z,24.12
2018-07-12T22:43:43.264Z,24.15
2018-07-12T22:46:14.122Z,24.10
2018-07-12T22:48:44.799Z,24.23
2018-07-12T22:51:15.694Z,24.20
2018-07-12T22:53:46.530Z,24.17
2018-07-12T22:56:17.232Z,24.16
2018-07-12T22:58:47.899Z,24.13
2018-07-12T23:01:18.503Z,24.19
2018-07-12T23:03:49.222Z,24.12
2018-07-12T23:06:20.100Z,24.02
2018-07-12T23:08:50.588Z,23.95
2018-07-12T23:11:22.397Z,23.86
2018-07-12T23:13:52.828Z,23.81
2018-07-12T23:16:23.901Z,23.77
2018-07-12T23:18:54.542Z,23.62
2018-07-12T23:21:25.325Z,23.64
2018-07-12T23:23:56.203Z,23.60
2018-07-12T23:26:26.796Z,23.56
2018-07-12T23:28:57.352Z,23.55
2018-07-12T23:31:27.917Z,23.50
2018-07-12T23:33:58.685Z,23.45
2018-07-12T23:36:29.173Z,23.39
2018-07-12T23:39:01.611Z,23.33
2018-07-12T23:41:32.430Z,23.33
2018-07-12T23:44:03.193Z,23.23
2018-07-12T23:46:33.823Z,23.15
2018-07-12T23:49:04.553Z,23.09
2018-07-12T23:51:35.414Z,23.04
2018-07-12T23:54:06.311Z,22.91
2018-07-12T23:56:36.916Z,22.85
2018-07-12T23:59:07.589Z,22.80
